createdAt,value
2023-03-06T00:00:53.276Z,78.68
2023-03-06T00:03:21.243Z,78.29
2023-03-06T00:05:48.509Z,77.93
2023-03-06T00:08:16.321Z,76.38
2023-03-06T00:10:43.409Z,74.78
2023-03-06T00:13:13.787Z,75.22
2023-03-06T00:15:41.097Z,74.56
2023-03-06T00:18:08.876Z,75.94
2023-03-06T00:20:36.676Z,75.80
2023-03-06T00:23:04.601Z,75.71
2023-03-06T00:25:31.861Z,75.47
2023-03-06T00:27:58.938Z,74.66
2023-03-06T00:30:26.097Z,74.65
2023-03-06T00:32:53.788Z,74.38
2023-03-06T00:35:21.417Z,74.29
2023-03-06T00:37:48.509Z,75.04
2023-03-06T00:40:19.913Z,74.64
2023-03-06T00:42:47.708Z,75.29
2023-03-06T00:45:15.437Z,75.14
2023-03-06T00:47:42.974Z,75.40
2023-03-06T00:50:11.087Z,75.54
2023-03-06T00:52:38.206Z,75.98
2023-03-06T00:55:06.399Z,76.37
2023-03-06T00:57:33.453Z,76.82
2023-03-06T01:00:00.549Z,77.19
2023-03-06T01:02:27.782Z,75.85
2023-03-06T01:04:54.997Z,73.57
2023-03-06T01:07:22.036Z,72.21
2023-03-06T01:09:50.849Z,72.96
2023-03-06T01:12:18.039Z,72.85
2023-03-06T01:14:45.558Z,73.04
2023-03-06T01:17:12.749Z,73.08
2023-03-06T01:19:39.909Z,72.77
2023-03-06T01:22:06.995Z,72.50
2023-03-06T01:24:34.055Z,73.40
2023-03-06T01:27:01.190Z,72.39
2023-03-06T01:29:28.264Z,72.26
2023-03-06T01:31:55.425Z,73.03
2023-03-06T01:34:22.672Z,72.91
2023-03-06T01:36:49.783Z,72.73
2023-03-06T01:39:16.841Z,73.64
2023-03-06T01:41:43.940Z,73.74
2023-03-06T01:44:13.921Z,74.40
2023-03-06T01:46:45.216Z,74.65
2023-03-06T01:49:29.641Z,75.11
2023-03-06T01:52:05.978Z,73.45
2023-03-06T01:54:36.529Z,72.45
2023-03-06T01:57:11.886Z,73.12
2023-03-06T01:59:40.837Z,73.08
2023-03-06T02:02:10.835Z,72.64
2023-03-06T02:04:40.458Z,72.61
2023-03-06T02:07:08.542Z,73.03
2023-03-06T02:09:37.884Z,72.67
2023-03-06T02:12:13.588Z,72.10
2023-03-06T02:14:42.389Z,72.00
2023-03-06T02:17:11.873Z,70.79
2023-03-06T02:20:00.746Z,70.59
2023-03-06T02:22:38.078Z,69.53
2023-03-06T02:25:16.003Z,69.59
2023-03-06T02:27:44.417Z,69.02
2023-03-06T02:30:16.805Z,70.16
2023-03-06T02:32:43.973Z,70.15
2023-03-06T02:35:22.710Z,71.16
2023-03-06T02:37:50.230Z,70.90
2023-03-06T02:40:21.021Z,71.14
2023-03-06T02:42:51.039Z,71.12
2023-03-06T02:45:30.528Z,71.74
2023-03-06T02:47:57.609Z,71.51
2023-03-06T02:50:24.826Z,71.71
2023-03-06T02:52:51.924Z,70.67
2023-03-06T02:55:19.119Z,70.01
2023-03-06T02:57:46.681Z,68.99
2023-03-06T03:00:15.064Z,69.32
2023-03-06T03:02:43.726Z,68.76
2023-03-06T03:05:10.892Z,69.86
2023-03-06T03:07:41.777Z,70.66
2023-03-06T03:10:10.745Z,70.78
2023-03-06T03:12:38.456Z,70.78
2023-03-06T03:15:06.413Z,70.87
2023-03-06T03:17:36.459Z,70.39
2023-03-06T03:20:04.888Z,70.60
2023-03-06T03:22:32.080Z,71.15
2023-03-06T03:24:59.167Z,71.43
2023-03-06T03:27:27.028Z,71.01
2023-03-06T03:29:57.690Z,71.41
2023-03-06T03:32:25.157Z,71.38
2023-03-06T03:34:52.848Z,71.44
2023-03-06T03:37:20.172Z,71.04
2023-03-06T03:39:47.398Z,71.51
2023-03-06T03:42:14.574Z,70.80
2023-03-06T03:44:41.732Z,70.75
2023-03-06T03:47:08.809Z,70.49
2023-03-06T03:49:36.421Z,71.02
2023-03-06T03:52:04.026Z,70.80
2023-03-06T03:54:33.820Z,71.87
2023-03-06T03:57:01.004Z,71.39
2023-03-06T03:59:32.979Z,70.81
2023-03-06T04:02:21.970Z,70.58
2023-03-06T04:04:57.596Z,69.20
2023-03-06T04:07:24.981Z,68.96
2023-03-06T04:09:52.148Z,69.15
2023-03-06T04:12:19.564Z,68.49
2023-03-06T04:14:47.633Z,68.17
2023-03-06T04:17:15.647Z,68.48
2023-03-06T04:19:43.178Z,67.52
2023-03-06T04:22:10.276Z,67.39
2023-03-06T04:24:39.388Z,67.84
2023-03-06T04:27:06.863Z,67.43
2023-03-06T04:29:34.234Z,67.61
2023-03-06T04:32:02.132Z,66.53
2023-03-06T04:34:29.418Z,66.29
2023-03-06T04:36:57.599Z,66.74
2023-03-06T04:39:24.818Z,66.69
2023-03-06T04:41:51.985Z,66.63
2023-03-06T04:44:19.146Z,66.79
2023-03-06T04:46:46.251Z,65.12
2023-03-06T04:49:13.360Z,64.41
2023-03-06T04:51:40.485Z,62.83
2023-03-06T04:54:07.598Z,62.67
2023-03-06T04:56:34.768Z,62.97
2023-03-06T04:59:04.396Z,63.20
2023-03-06T05:01:31.562Z,63.57
2023-03-06T05:03:58.679Z,63.32
2023-03-06T05:06:25.717Z,63.59
2023-03-06T05:08:52.830Z,63.63
2023-03-06T05:11:19.965Z,63.02
2023-03-06T05:13:47.055Z,63.24
2023-03-06T05:16:14.223Z,63.92
2023-03-06T05:18:41.333Z,63.57
2023-03-06T05:21:08.511Z,63.31
2023-03-06T05:23:38.645Z,63.15
2023-03-06T05:26:08.966Z,62.66
2023-03-06T05:28:36.211Z,63.69
2023-03-06T05:31:03.643Z,63.35
2023-03-06T05:33:33.219Z,63.36
2023-03-06T05:36:00.629Z,63.55
2023-03-06T05:38:28.474Z,64.38
2023-03-06T05:40:56.230Z,63.58
2023-03-06T05:43:23.763Z,63.74
2023-03-06T05:45:53.052Z,63.61
2023-03-06T05:48:20.242Z,63.90
2023-03-06T05:50:55.631Z,66.44
2023-03-06T05:53:22.753Z,64.89
2023-03-06T05:55:57.598Z,62.99
2023-03-06T05:58:24.726Z,61.13
2023-03-06T06:00:52.335Z,61.14
2023-03-06T06:03:20.481Z,60.77
2023-03-06T06:05:47.593Z,61.15
2023-03-06T06:08:14.861Z,60.03
2023-03-06T06:10:42.026Z,60.36
2023-03-06T06:13:09.187Z,60.21
2023-03-06T06:15:38.395Z,59.98
2023-03-06T06:18:05.637Z,61.68
2023-03-06T06:20:32.864Z,59.37
2023-03-06T06:23:00.174Z,59.07
2023-03-06T06:25:27.340Z,57.92
2023-03-06T06:27:57.930Z,57.29
2023-03-06T06:30:25.432Z,58.04
2023-03-06T06:32:52.605Z,56.96
2023-03-06T06:35:19.736Z,56.86
2023-03-06T06:37:46.865Z,56.64
2023-03-06T06:40:14.210Z,55.49
2023-03-06T06:42:41.837Z,55.11
2023-03-06T06:45:11.078Z,54.48
2023-03-06T06:47:41.518Z,55.58
2023-03-06T06:50:13.183Z,54.04
2023-03-06T06:52:40.591Z,53.16
2023-03-06T06:55:08.287Z,52.95
2023-03-06T06:57:35.346Z,51.97
2023-03-06T07:00:02.707Z,54.82
2023-03-06T07:02:30.135Z,52.65
2023-03-06T07:05:04.184Z,51.81
2023-03-06T07:07:35.316Z,52.54
2023-03-06T07:10:07.224Z,51.61
2023-03-06T07:12:35.331Z,52.32
2023-03-06T07:15:03.323Z,51.59
2023-03-06T07:17:30.522Z,51.28
2023-03-06T07:19:57.623Z,52.14
2023-03-06T07:22:24.786Z,51.60
2023-03-06T07:24:51.966Z,52.35
2023-03-06T07:27:19.362Z,53.08
2023-03-06T07:29:46.744Z,50.66
2023-03-06T07:32:13.900Z,50.47
2023-03-06T07:34:41.055Z,49.17
2023-03-06T07:37:08.260Z,49.22
2023-03-06T07:39:35.590Z,50.73
2023-03-06T07:42:02.847Z,51.99
2023-03-06T07:44:30.105Z,50.35
2023-03-06T07:46:57.189Z,50.43
2023-03-06T07:49:24.290Z,50.63
2023-03-06T07:51:51.345Z,52.22
2023-03-06T07:54:18.455Z,48.26
2023-03-06T07:56:45.679Z,49.19
2023-03-06T07:59:12.745Z,47.32
2023-03-06T08:01:40.422Z,46.82
2023-03-06T08:04:07.649Z,46.23
2023-03-06T08:06:34.746Z,44.94
2023-03-06T08:09:01.830Z,44.95
2023-03-06T08:11:30.857Z,45.54
2023-03-06T08:13:58.657Z,44.09
2023-03-06T08:16:28.419Z,44.76
2023-03-06T08:18:56.322Z,43.59
2023-03-06T08:21:26.018Z,42.67
2023-03-06T08:23:53.479Z,44.12
2023-03-06T08:26:24.266Z,43.48
2023-03-06T08:28:52.711Z,44.50
2023-03-06T08:31:31.727Z,44.79
2023-03-06T08:34:01.587Z,43.32
2023-03-06T08:36:29.138Z,43.56
2023-03-06T08:38:56.499Z,43.44
2023-03-06T08:41:23.638Z,41.68
2023-03-06T08:43:51.554Z,42.19
2023-03-06T08:46:19.464Z,42.09
2023-03-06T08:48:49.814Z,39.91
2023-03-06T08:51:18.597Z,40.15
2023-03-06T08:53:46.589Z,40.41
2023-03-06T08:56:18.360Z,40.15
2023-03-06T08:58:45.654Z,39.32
2023-03-06T09:01:21.499Z,39.43
2023-03-06T09:03:49.271Z,41.00
2023-03-06T09:06:17.659Z,39.50
2023-03-06T09:08:44.906Z,40.12
2023-03-06T09:11:16.027Z,39.49
2023-03-06T09:13:43.832Z,39.32
2023-03-06T09:16:11.891Z,40.96
2023-03-06T09:18:39.100Z,41.19
2023-03-06T09:21:08.225Z,40.95
2023-03-06T09:23:36.196Z,42.13
2023-03-06T09:26:03.780Z,40.88
2023-03-06T09:28:31.266Z,39.01
2023-03-06T09:30:58.767Z,37.61
2023-03-06T09:33:27.027Z,38.72
2023-03-06T09:35:56.353Z,39.72
2023-03-06T09:38:26.603Z,41.20
2023-03-06T09:41:06.127Z,39.62
2023-03-06T09:43:39.361Z,39.35
2023-03-06T10:17:22.415Z,39.51
2023-03-06T10:19:50.011Z,40.28
2023-03-06T10:22:30.799Z,37.96
2023-03-06T10:25:14.282Z,38.34
2023-03-06T10:27:44.244Z,36.16
2023-03-06T10:30:17.003Z,36.19
2023-03-06T10:32:58.645Z,36.27
2023-03-06T10:35:31.620Z,37.47
2023-03-06T10:38:24.623Z,36.76
2023-03-06T10:41:13.380Z,36.53
2023-03-06T10:44:02.903Z,36.57
2023-03-06T10:46:34.521Z,37.25
2023-03-06T10:49:06.386Z,38.65
2023-03-06T10:51:35.657Z,39.56
2023-03-06T10:54:19.621Z,38.43
2023-03-06T10:56:47.751Z,38.53
2023-03-06T10:59:17.891Z,37.84
2023-03-06T11:01:52.637Z,39.09
2023-03-06T11:04:23.593Z,39.38
2023-03-06T11:07:22.795Z,39.61
2023-03-06T11:09:58.799Z,38.03
2023-03-06T11:12:32.390Z,37.09
2023-03-06T11:15:10.168Z,38.06
2023-03-06T11:17:59.477Z,38.67
2023-03-06T11:20:50.962Z,38.44
2023-03-06T11:23:45.805Z,38.29
2023-03-06T11:26:20.240Z,38.03
2023-03-06T11:29:19.982Z,39.76
2023-03-06T11:31:53.222Z,39.13
2023-03-06T11:34:39.617Z,40.31
2023-03-06T11:37:31.092Z,39.69
2023-03-06T11:40:05.954Z,38.92
2023-03-06T11:42:40.971Z,38.29
2023-03-06T11:45:24.204Z,36.76
2023-03-06T11:48:03.103Z,37.56
2023-03-06T11:50:38.765Z,35.66
2023-03-06T11:53:11.057Z,37.03
2023-03-06T11:55:56.009Z,36.53
2023-03-06T11:58:57.189Z,36.06
2023-03-06T12:01:57.744Z,35.79
2023-03-06T12:04:53.732Z,38.61
2023-03-06T12:07:34.125Z,38.95
2023-03-06T12:10:38.714Z,39.64
2023-03-06T12:16:05.756Z,40.02
2023-03-06T12:18:41.970Z,42.03
2023-03-06T12:21:27.194Z,42.75
2023-03-06T12:24:00.488Z,41.15
2023-03-06T12:27:07.614Z,42.22
2023-03-06T12:29:37.257Z,43.47
2023-03-06T12:32:21.438Z,43.18
2023-03-06T12:35:04.081Z,41.57
2023-03-06T12:38:18.602Z,43.18
2023-03-06T12:41:14.991Z,41.50
2023-03-06T12:43:54.748Z,41.70
2023-03-06T12:46:23.733Z,41.40
2023-03-06T12:49:09.369Z,41.35
2023-03-06T12:51:37.834Z,40.66
2023-03-06T12:54:05.417Z,40.26
2023-03-06T12:56:34.736Z,40.46
2023-03-06T12:59:06.070Z,41.67
2023-03-06T13:01:33.153Z,40.99
2023-03-06T13:04:20.418Z,40.61
2023-03-06T13:07:04.323Z,41.17
2023-03-06T13:10:07.209Z,37.53
2023-03-06T13:12:55.784Z,36.88
2023-03-06T13:15:39.727Z,38.16
2023-03-06T13:18:21.982Z,37.76
2023-03-06T13:20:50.367Z,39.13
2023-03-06T13:23:29.771Z,39.00
2023-03-06T13:25:59.842Z,39.49
2023-03-06T13:28:40.398Z,38.94
2023-03-06T13:31:18.209Z,38.36
2023-03-06T13:33:55.303Z,38.66
2023-03-06T13:36:39.604Z,37.76
2023-03-06T13:39:11.556Z,37.11
2023-03-06T13:41:42.812Z,36.65
2023-03-06T13:44:25.269Z,37.65
2023-03-06T13:47:39.752Z,37.19
2023-03-06T13:50:37.965Z,37.25
2023-03-06T13:53:35.428Z,36.91
2023-03-06T13:56:43.816Z,37.23
2023-03-06T13:59:22.942Z,35.87
2023-03-06T14:02:10.471Z,36.77
2023-03-06T14:04:57.877Z,35.94
2023-03-06T14:07:33.650Z,36.63
2023-03-06T14:10:25.896Z,36.87
2023-03-06T14:13:01.146Z,34.62
2023-03-06T14:15:42.396Z,35.33
2023-03-06T14:18:33.015Z,36.13
2023-03-06T14:21:00.134Z,35.74
2023-03-06T14:23:42.763Z,34.75
2023-03-06T14:26:17.656Z,35.18
2023-03-06T14:29:05.056Z,35.68
2023-03-06T14:31:41.034Z,35.61
2023-03-06T14:34:18.349Z,36.08
2023-03-06T14:36:49.284Z,35.72
2023-03-06T14:39:27.618Z,35.78
2023-03-06T14:42:25.605Z,36.95
2023-03-06T14:45:16.488Z,37.22
2023-03-06T14:47:49.321Z,37.72
2023-03-06T14:50:24.277Z,38.09
2023-03-06T14:52:56.226Z,37.63
2023-03-06T14:55:26.160Z,38.29
2023-03-06T14:57:58.498Z,39.40
2023-03-06T15:00:33.459Z,39.25
2023-03-06T15:03:00.913Z,38.20
2023-03-06T15:05:30.929Z,38.46
2023-03-06T15:08:02.674Z,39.64
2023-03-06T15:10:32.603Z,39.84
2023-03-06T15:13:11.479Z,39.50
2023-03-06T15:15:38.813Z,40.35
2023-03-06T15:18:28.918Z,40.05
2023-03-06T15:21:10.884Z,39.64
2023-03-06T15:23:44.283Z,40.12
2023-03-06T15:26:31.548Z,41.08
2023-03-06T15:29:11.135Z,41.71
2023-03-06T15:31:43.816Z,42.67
2023-03-06T15:38:02.968Z,43.18
2023-03-06T15:40:32.074Z,43.59
2023-03-06T15:42:59.503Z,44.81
2023-03-06T15:45:29.559Z,45.14
2023-03-06T15:47:56.687Z,45.73
2023-03-06T15:50:29.443Z,45.43
2023-03-06T15:52:56.709Z,45.39
2023-03-06T15:55:26.252Z,46.31
2023-03-06T15:57:59.926Z,46.18
2023-03-06T16:00:34.340Z,46.19
2023-03-06T16:03:03.036Z,46.91
2023-03-06T16:05:30.499Z,47.20
2023-03-06T16:07:57.868Z,47.32
2023-03-06T16:10:28.027Z,48.12
2023-03-06T16:12:59.970Z,48.34
2023-03-06T16:15:31.055Z,48.14
2023-03-06T16:17:59.044Z,47.37
2023-03-06T16:20:29.958Z,48.44
2023-03-06T16:22:57.238Z,47.87
2023-03-06T16:25:28.303Z,48.52
2023-03-06T16:28:01.185Z,48.49
2023-03-06T16:30:33.521Z,48.25
2023-03-06T16:33:01.944Z,47.62
2023-03-06T16:35:29.108Z,46.45
2023-03-06T16:37:56.271Z,46.05
2023-03-06T16:40:27.472Z,45.72
2023-03-06T16:42:55.346Z,46.76
2023-03-06T16:45:23.519Z,46.64
2023-03-06T16:47:51.133Z,45.93
2023-03-06T16:50:33.328Z,47.90
2023-03-06T16:53:00.409Z,46.69
2023-03-06T16:55:27.862Z,46.07
2023-03-06T16:57:55.097Z,46.77
2023-03-06T17:00:25.001Z,46.27
2023-03-06T17:02:52.697Z,46.18
2023-03-06T17:05:20.161Z,48.55
2023-03-06T17:07:47.582Z,50.15
2023-03-06T17:10:16.701Z,50.61
2023-03-06T17:12:43.821Z,50.23
2023-03-06T17:15:11.992Z,49.17
2023-03-06T17:17:39.104Z,50.05
2023-03-06T17:20:12.695Z,52.41
2023-03-06T17:22:40.685Z,52.47
2023-03-06T17:25:08.917Z,51.36
2023-03-06T17:27:36.536Z,50.62
2023-03-06T17:30:05.353Z,49.87
2023-03-06T17:32:33.014Z,49.76
2023-03-06T17:35:00.180Z,50.18
2023-03-06T17:37:27.338Z,49.67
2023-03-06T17:39:54.520Z,50.27
2023-03-06T17:42:21.737Z,50.05
2023-03-06T17:44:48.801Z,49.71
2023-03-06T17:47:15.890Z,50.52
2023-03-06T17:49:43.159Z,50.79
2023-03-06T17:52:10.411Z,49.44
2023-03-06T17:54:37.642Z,49.18
2023-03-06T17:57:05.849Z,49.39
2023-03-06T17:59:36.621Z,49.51
2023-03-06T18:02:06.372Z,51.50
2023-03-06T18:04:33.674Z,52.24
2023-03-06T18:07:00.811Z,53.23
2023-03-06T18:09:27.906Z,51.63
2023-03-06T18:11:54.994Z,52.03
2023-03-06T18:14:22.165Z,51.32
2023-03-06T18:16:49.431Z,50.67
2023-03-06T18:19:17.844Z,51.03
2023-03-06T18:21:47.347Z,51.85
2023-03-06T18:24:14.567Z,52.14
2023-03-06T18:26:42.576Z,52.16
2023-03-06T18:29:09.725Z,52.13
2023-03-06T18:31:38.785Z,52.28
2023-03-06T18:34:10.092Z,53.88
2023-03-06T18:36:37.572Z,54.43
2023-03-06T18:39:08.755Z,55.21
2023-03-06T18:41:36.479Z,54.80
2023-03-06T18:44:04.378Z,54.86
2023-03-06T18:46:35.278Z,54.13
2023-03-06T18:49:02.904Z,52.94
2023-03-06T18:51:30.217Z,52.79
2023-03-06T18:53:58.525Z,52.43
2023-03-06T18:56:26.134Z,52.45
2023-03-06T18:58:54.053Z,52.24
2023-03-06T19:01:22.810Z,52.79
2023-03-06T19:03:50.039Z,53.06
2023-03-06T19:06:18.281Z,53.26
2023-03-06T19:08:45.381Z,53.98
2023-03-06T19:11:17.282Z,53.70
2023-03-06T19:13:44.888Z,54.49
2023-03-06T19:16:20.891Z,54.91
2023-03-06T19:18:48.907Z,55.98
2023-03-06T19:21:18.826Z,55.58
2023-03-06T19:23:46.711Z,54.69
2023-03-06T19:26:14.466Z,55.03
2023-03-06T19:28:43.397Z,56.19
2023-03-06T19:31:19.504Z,54.82
2023-03-06T19:33:48.893Z,54.67
2023-03-06T19:36:18.530Z,54.23
2023-03-06T19:38:50.441Z,53.87
2023-03-06T19:41:17.939Z,53.45
2023-03-06T19:43:45.064Z,52.55
2023-03-06T19:46:13.528Z,53.53
2023-03-06T19:48:41.814Z,53.87
2023-03-06T19:51:09.001Z,53.41
2023-03-06T19:53:36.786Z,53.28
2023-03-06T19:56:18.410Z,53.02
2023-03-06T19:58:45.754Z,54.32
2023-03-06T20:01:15.340Z,56.03
2023-03-06T20:03:42.945Z,55.28
2023-03-06T20:06:18.720Z,54.17
2023-03-06T20:08:47.206Z,53.83
2023-03-06T20:11:22.710Z,54.28
2023-03-06T20:13:49.954Z,54.45
2023-03-06T20:16:18.199Z,54.34
2023-03-06T20:18:45.876Z,53.23
2023-03-06T20:21:13.851Z,52.78
2023-03-06T20:23:41.507Z,52.41
2023-03-06T20:26:12.265Z,54.67
2023-03-06T20:28:40.550Z,55.23
2023-03-06T20:31:11.287Z,55.76
2023-03-06T20:33:38.506Z,55.29
2023-03-06T20:36:12.361Z,54.58
2023-03-06T20:38:39.584Z,55.42
2023-03-06T20:41:08.947Z,55.98
2023-03-06T20:43:36.055Z,56.49
2023-03-06T20:46:04.225Z,56.39
2023-03-06T20:48:31.626Z,57.68
2023-03-06T20:51:00.477Z,57.40
2023-03-06T20:53:27.588Z,58.98
2023-03-06T20:55:54.783Z,58.65
2023-03-06T20:58:23.520Z,59.32
2023-03-06T21:00:50.638Z,59.30
2023-03-06T21:03:17.760Z,58.98
2023-03-06T21:05:48.093Z,57.95
2023-03-06T21:08:16.040Z,57.76
2023-03-06T21:10:45.009Z,58.96
2023-03-06T21:13:12.187Z,59.34
2023-03-06T21:15:40.787Z,59.90
2023-03-06T21:18:09.048Z,58.75
2023-03-06T21:20:39.701Z,58.37
2023-03-06T21:23:07.337Z,58.88
2023-03-06T21:25:34.692Z,60.31
2023-03-06T21:28:01.878Z,61.74
2023-03-06T21:30:29.489Z,63.16
2023-03-06T21:32:56.877Z,63.80
2023-03-06T21:35:24.054Z,63.89
2023-03-06T21:37:51.799Z,62.85
2023-03-06T21:40:19.133Z,62.37
2023-03-06T21:42:46.203Z,62.03
2023-03-06T21:45:13.332Z,61.74
2023-03-06T21:47:41.145Z,61.61
2023-03-06T21:50:10.849Z,60.63
2023-03-06T21:52:38.030Z,60.37
2023-03-06T21:55:06.139Z,60.31
2023-03-06T21:57:33.264Z,61.43
2023-03-06T22:00:00.481Z,61.26
2023-03-06T22:02:27.664Z,60.65
2023-03-06T22:04:54.876Z,59.39
2023-03-06T22:07:23.061Z,59.16
2023-03-06T22:09:53.505Z,60.00
2023-03-06T22:12:21.489Z,60.10
2023-03-06T22:14:48.576Z,61.53
2023-03-06T22:17:15.783Z,60.73
2023-03-06T22:19:42.838Z,61.90
2023-03-06T22:22:10.779Z,61.08
2023-03-06T22:24:37.986Z,62.41
2023-03-06T22:27:05.388Z,63.30
2023-03-06T22:29:32.470Z,62.98
2023-03-06T22:31:59.730Z,62.83
2023-03-06T22:34:26.898Z,62.57
2023-03-06T22:36:54.065Z,62.41
2023-03-06T22:39:21.268Z,63.21
2023-03-06T22:41:48.589Z,63.01
2023-03-06T22:44:18.536Z,65.58
2023-03-06T22:46:46.383Z,64.31
2023-03-06T22:49:14.904Z,64.44
2023-03-06T22:51:41.929Z,63.39
2023-03-06T22:54:09.857Z,62.84
2023-03-06T22:56:37.006Z,62.49
2023-03-06T22:59:04.596Z,63.91
2023-03-06T23:01:34.114Z,64.13
2023-03-06T23:04:04.034Z,63.25
2023-03-06T23:06:33.682Z,63.46
2023-03-06T23:09:22.533Z,61.91
2023-03-06T23:12:09.309Z,62.57
2023-03-06T23:14:55.142Z,63.30
2023-03-06T23:17:40.917Z,63.37
2023-03-06T23:20:26.751Z,62.88
2023-03-06T23:23:12.717Z,61.75
2023-03-06T23:25:43.667Z,61.62
2023-03-06T23:28:11.536Z,61.09
2023-03-06T23:30:40.219Z,61.45
2023-03-06T23:33:07.937Z,61.47
2023-03-06T23:35:36.156Z,61.40
2023-03-06T23:38:03.625Z,60.28
2023-03-06T23:40:33.708Z,60.71
2023-03-06T23:43:01.359Z,61.29
2023-03-06T23:45:28.509Z,61.13
2023-03-06T23:47:55.909Z,61.67
2023-03-06T23:50:24.390Z,61.12
2023-03-06T23:52:55.660Z,60.32
2023-03-06T23:55:22.898Z,60.60
2023-03-06T23:57:49.996Z,61.08
